Terminal Aerodrome Forecast
Issued by NWS

Home | Current Version | Previous Version | Text Only | Print | Product List | Glossary On
Versions: 1 2 3 4 5 6 7 8 9 10 11 12 13 14
000
FTUS42 KTAE 031731
TAFDHN
TAF
KDHN 031731Z 0318/0418 12005KT P6SM SCT040
     FM032100 26005KT P6SM BKN040
     FM040000 22003KT P6SM SCT050
     FM041400 28004KT P6SM FEW040=

USA.gov is the U.S. government's official web portal to all federal, state and local government web resources and services.